sensor_id;sensor_type;location;lat;lon;timestamp;temperature;humidity
25248;DHT22;13191;47.472;11.214;2022-11-20T00:01:15;2.50;99.90
25248;DHT22;13191;47.472;11.214;2022-11-20T00:03:41;2.50;99.90
25248;DHT22;13191;47.472;11.214;2022-11-20T00:06:10;2.50;99.90
25248;DHT22;13191;47.472;11.214;2022-11-20T00:08:35;2.40;99.90
25248;DHT22;13191;47.472;11.214;2022-11-20T00:11:06;2.50;99.90
25248;DHT22;13191;47.472;11.214;2022-11-20T00:13:32;2.50;99.90
25248;DHT22;13191;47.472;11.214;2022-11-20T00:15:59;2.50;99.90
25248;DHT22;13191;47.472;11.214;2022-11-20T00:18:26;2.50;99.90
25248;DHT22;13191;47.472;11.214;2022-11-20T00:20:52;2.40;99.90
25248;DHT22;13191;47.472;11.214;2022-11-20T00:23:18;2.40;99.90
25248;DHT22;13191;47.472;11.214;2022-11-20T00:25:43;2.40;99.90
25248;DHT22;13191;47.472;11.214;2022-11-20T00:28:09;2.40;99.90
25248;DHT22;13191;47.472;11.214;2022-11-20T00:30:34;2.40;99.90
25248;DHT22;13191;47.472;11.214;2022-11-20T00:33:00;2.50;99.90
25248;DHT22;13191;47.472;11.214;2022-11-20T00:35:25;2.60;99.90
25248;DHT22;13191;47.472;11.214;2022-11-20T00:37:51;2.60;99.90
25248;DHT22;13191;47.472;11.214;2022-11-20T00:40:16;2.70;99.90
25248;DHT22;13191;47.472;11.214;2022-11-20T00:42:42;2.70;99.90
25248;DHT22;13191;47.472;11.214;2022-11-20T00:45:08;2.70;99.90
25248;DHT22;13191;47.472;11.214;2022-11-20T00:47:33;2.70;99.90
25248;DHT22;13191;47.472;11.214;2022-11-20T00:49:59;2.70;99.90
25248;DHT22;13191;47.472;11.214;2022-11-20T00:52:25;2.70;99.90
25248;DHT22;13191;47.472;11.214;2022-11-20T00:54:50;2.70;99.90
25248;DHT22;13191;47.472;11.214;2022-11-20T00:57:16;2.80;99.90
25248;DHT22;13191;47.472;11.214;2022-11-20T00:59:41;2.80;99.90
25248;DHT22;13191;47.472;11.214;2022-11-20T01:02:07;2.80;99.90
25248;DHT22;13191;47.472;11.214;2022-11-20T01:04:32;2.80;99.90
25248;DHT22;13191;47.472;11.214;2022-11-20T01:06:58;2.80;99.90
25248;DHT22;13191;47.472;11.214;2022-11-20T01:09:23;2.80;99.90
25248;DHT22;13191;47.472;11.214;2022-11-20T01:11:49;2.90;99.90
25248;DHT22;13191;47.472;11.214;2022-11-20T01:14:17;2.90;99.90
25248;DHT22;13191;47.472;11.214;2022-11-20T01:16:48;2.90;99.90
25248;DHT22;13191;47.472;11.214;2022-11-20T01:19:20;2.90;99.90
25248;DHT22;13191;47.472;11.214;2022-11-20T01:21:48;2.90;99.90
25248;DHT22;13191;47.472;11.214;2022-11-20T01:24:17;2.90;99.90
25248;DHT22;13191;47.472;11.214;2022-11-20T01:26:44;2.90;99.90
25248;DHT22;13191;47.472;11.214;2022-11-20T01:29:24;2.90;99.90
25248;DHT22;13191;47.472;11.214;2022-11-20T01:31:50;2.90;99.90
25248;DHT22;13191;47.472;11.214;2022-11-20T01:34:18;2.90;99.90
25248;DHT22;13191;47.472;11.214;2022-11-20T01:36:45;2.90;99.90
25248;DHT22;13191;47.472;11.214;2022-11-20T01:39:14;2.90;99.90
25248;DHT22;13191;47.472;11.214;2022-11-20T01:41:41;2.90;99.90
25248;DHT22;13191;47.472;11.214;2022-11-20T01:44:52;2.90;99.90
25248;DHT22;13191;47.472;11.214;2022-11-20T01:50:12;2.90;99.90
25248;DHT22;13191;47.472;11.214;2022-11-20T01:52:44;2.80;99.90
25248;DHT22;13191;47.472;11.214;2022-11-20T01:55:14;2.80;99.90
25248;DHT22;13191;47.472;11.214;2022-11-20T01:57:41;2.80;99.90
25248;DHT22;13191;47.472;11.214;2022-11-20T02:00:12;2.80;99.90
25248;DHT22;13191;47.472;11.214;2022-11-20T02:02:41;2.70;99.90
25248;DHT22;13191;47.472;11.214;2022-11-20T02:05:18;2.70;99.90
25248;DHT22;13191;47.472;11.214;2022-11-20T02:07:46;2.80;99.90
25248;DHT22;13191;47.472;11.214;2022-11-20T02:10:11;2.90;99.90
25248;DHT22;13191;47.472;11.214;2022-11-20T02:12:37;2.90;99.90
25248;DHT22;13191;47.472;11.214;2022-11-20T02:15:21;2.90;99.90
25248;DHT22;13191;47.472;11.214;2022-11-20T02:17:48;2.90;99.90
25248;DHT22;13191;47.472;11.214;2022-11-20T02:20:13;2.90;99.90
25248;DHT22;13191;47.472;11.214;2022-11-20T02:23:12;2.90;99.90
25248;DHT22;13191;47.472;11.214;2022-11-20T02:25:36;2.90;99.90
25248;DHT22;13191;47.472;11.214;2022-11-20T02:28:03;2.80;99.90
25248;DHT22;13191;47.472;11.214;2022-11-20T02:30:30;2.90;99.90
25248;DHT22;13191;47.472;11.214;2022-11-20T02:32:55;2.90;99.90
25248;DHT22;13191;47.472;11.214;2022-11-20T02:37:50;3.00;99.90
25248;DHT22;13191;47.472;11.214;2022-11-20T02:40:17;3.10;99.90
25248;DHT22;13191;47.472;11.214;2022-11-20T02:42:43;3.10;99.90
25248;DHT22;13191;47.472;11.214;2022-11-20T02:45:08;3.10;99.90
25248;DHT22;13191;47.472;11.214;2022-11-20T02:47:34;3.20;99.90
25248;DHT22;13191;47.472;11.214;2022-11-20T02:50:00;3.20;99.90
25248;DHT22;13191;47.472;11.214;2022-11-20T02:52:26;3.20;99.90
25248;DHT22;13191;47.472;11.214;2022-11-20T02:54:52;3.20;99.90
25248;DHT22;13191;47.472;11.214;2022-11-20T02:57:17;3.20;99.90
25248;DHT22;13191;47.472;11.214;2022-11-20T02:59:43;3.20;99.90
25248;DHT22;13191;47.472;11.214;2022-11-20T03:02:09;3.20;99.90
25248;DHT22;13191;47.472;11.214;2022-11-20T03:04:34;3.20;99.90
25248;DHT22;13191;47.472;11.214;2022-11-20T03:07:00;3.20;99.90
25248;DHT22;13191;47.472;11.214;2022-11-20T03:09:26;3.20;99.90
25248;DHT22;13191;47.472;11.214;2022-11-20T03:11:51;3.20;99.90
25248;DHT22;13191;47.472;11.214;2022-11-20T03:14:17;3.20;99.90
25248;DHT22;13191;47.472;11.214;2022-11-20T03:16:42;3.20;99.90
25248;DHT22;13191;47.472;11.214;2022-11-20T03:19:08;3.20;99.90
25248;DHT22;13191;47.472;11.214;2022-11-20T03:21:34;3.20;99.90
25248;DHT22;13191;47.472;11.214;2022-11-20T03:24:00;3.20;99.90
25248;DHT22;13191;47.472;11.214;2022-11-20T03:26:27;3.20;99.90
25248;DHT22;13191;47.472;11.214;2022-11-20T03:28:55;3.20;99.90
25248;DHT22;13191;47.472;11.214;2022-11-20T03:31:23;3.20;99.90
25248;DHT22;13191;47.472;11.214;2022-11-20T03:33:50;3.10;99.90
25248;DHT22;13191;47.472;11.214;2022-11-20T03:36:17;3.20;99.90
25248;DHT22;13191;47.472;11.214;2022-11-20T03:38:43;3.10;99.90
25248;DHT22;13191;47.472;11.214;2022-11-20T03:41:11;3.10;99.90
25248;DHT22;13191;47.472;11.214;2022-11-20T03:43:37;3.10;99.90
25248;DHT22;13191;47.472;11.214;2022-11-20T03:46:03;3.20;99.90
25248;DHT22;13191;47.472;11.214;2022-11-20T03:48:29;3.20;99.90
25248;DHT22;13191;47.472;11.214;2022-11-20T03:51:13;3.20;99.90
25248;DHT22;13191;47.472;11.214;2022-11-20T03:53:40;3.30;99.90
25248;DHT22;13191;47.472;11.214;2022-11-20T03:56:06;3.30;99.90
25248;DHT22;13191;47.472;11.214;2022-11-20T03:58:33;3.30;99.90
25248;DHT22;13191;47.472;11.214;2022-11-20T04:01:05;3.30;99.90
25248;DHT22;13191;47.472;11.214;2022-11-20T04:03:31;3.30;99.90
25248;DHT22;13191;47.472;11.214;2022-11-20T04:06:02;3.20;99.90
25248;DHT22;13191;47.472;11.214;2022-11-20T04:08:29;3.10;99.90
25248;DHT22;13191;47.472;11.214;2022-11-20T04:10:54;3.10;99.90
25248;DHT22;13191;47.472;11.214;2022-11-20T04:13:20;3.10;99.90
25248;DHT22;13191;47.472;11.214;2022-11-20T04:15:45;3.10;99.90
25248;DHT22;13191;47.472;11.214;2022-11-20T04:18:11;3.10;99.90
25248;DHT22;13191;47.472;11.214;2022-11-20T04:20:36;3.10;99.90
25248;DHT22;13191;47.472;11.214;2022-11-20T04:23:02;3.10;99.90
25248;DHT22;13191;47.472;11.214;2022-11-20T04:25:27;3.20;99.90
25248;DHT22;13191;47.472;11.214;2022-11-20T04:27:53;3.20;99.90
25248;DHT22;13191;47.472;11.214;2022-11-20T04:30:19;3.20;99.90
25248;DHT22;13191;47.472;11.214;2022-11-20T04:32:44;3.20;99.90
25248;DHT22;13191;47.472;11.214;2022-11-20T04:35:10;3.20;99.90
25248;DHT22;13191;47.472;11.214;2022-11-20T04:37:35;3.30;99.90
25248;DHT22;13191;47.472;11.214;2022-11-20T04:40:01;3.30;99.90
25248;DHT22;13191;47.472;11.214;2022-11-20T04:42:26;3.30;99.90
25248;DHT22;13191;47.472;11.214;2022-11-20T04:44:55;3.30;99.90
25248;DHT22;13191;47.472;11.214;2022-11-20T04:47:21;3.30;99.90
25248;DHT22;13191;47.472;11.214;2022-11-20T04:49:47;3.30;99.90
25248;DHT22;13191;47.472;11.214;2022-11-20T04:52:13;3.30;99.90
25248;DHT22;13191;47.472;11.214;2022-11-20T04:54:38;3.30;99.90
25248;DHT22;13191;47.472;11.214;2022-11-20T04:57:04;3.30;99.90
25248;DHT22;13191;47.472;11.214;2022-11-20T04:59:29;3.30;99.90
25248;DHT22;13191;47.472;11.214;2022-11-20T05:01:55;3.40;99.90
25248;DHT22;13191;47.472;11.214;2022-11-20T05:04:21;3.30;99.90
25248;DHT22;13191;47.472;11.214;2022-11-20T05:06:46;3.30;99.90
25248;DHT22;13191;47.472;11.214;2022-11-20T05:09:12;3.30;99.90
25248;DHT22;13191;47.472;11.214;2022-11-20T05:11:38;3.30;99.90
25248;DHT22;13191;47.472;11.214;2022-11-20T05:14:04;3.30;99.90
25248;DHT22;13191;47.472;11.214;2022-11-20T05:16:29;3.30;99.90
25248;DHT22;13191;47.472;11.214;2022-11-20T05:18:55;3.40;99.90
25248;DHT22;13191;47.472;11.214;2022-11-20T05:21:21;3.40;99.90
25248;DHT22;13191;47.472;11.214;2022-11-20T05:23:47;3.40;99.90
25248;DHT22;13191;47.472;11.214;2022-11-20T05:26:18;3.30;99.90
25248;DHT22;13191;47.472;11.214;2022-11-20T05:28:44;3.30;99.90
25248;DHT22;13191;47.472;11.214;2022-11-20T05:31:12;3.40;99.90
25248;DHT22;13191;47.472;11.214;2022-11-20T05:33:40;3.40;99.90
25248;DHT22;13191;47.472;11.214;2022-11-20T05:36:06;3.40;99.90
25248;DHT22;13191;47.472;11.214;2022-11-20T05:38:32;3.40;99.90
25248;DHT22;13191;47.472;11.214;2022-11-20T05:41:10;3.30;99.90
25248;DHT22;13191;47.472;11.214;2022-11-20T05:43:37;3.30;99.90
25248;DHT22;13191;47.472;11.214;2022-11-20T05:46:03;3.30;99.90
25248;DHT22;13191;47.472;11.214;2022-11-20T05:48:30;3.30;99.90
25248;DHT22;13191;47.472;11.214;2022-11-20T05:50:58;3.30;99.90
25248;DHT22;13191;47.472;11.214;2022-11-20T05:53:23;3.40;99.90
25248;DHT22;13191;47.472;11.214;2022-11-20T05:55:59;3.40;99.90
25248;DHT22;13191;47.472;11.214;2022-11-20T05:58:25;3.40;99.90
25248;DHT22;13191;47.472;11.214;2022-11-20T06:00:51;3.40;99.90
25248;DHT22;13191;47.472;11.214;2022-11-20T06:03:17;3.30;99.90
25248;DHT22;13191;47.472;11.214;2022-11-20T06:05:42;3.30;99.90
25248;DHT22;13191;47.472;11.214;2022-11-20T06:08:08;3.30;99.90
25248;DHT22;13191;47.472;11.214;2022-11-20T06:10:33;3.30;99.90
25248;DHT22;13191;47.472;11.214;2022-11-20T06:12:59;3.30;99.90
25248;DHT22;13191;47.472;11.214;2022-11-20T06:15:25;3.30;99.90
25248;DHT22;13191;47.472;11.214;2022-11-20T06:17:54;3.30;99.90
25248;DHT22;13191;47.472;11.214;2022-11-20T06:20:20;3.30;99.90
25248;DHT22;13191;47.472;11.214;2022-11-20T06:22:46;3.30;99.90
25248;DHT22;13191;47.472;11.214;2022-11-20T06:25:12;3.30;99.90
25248;DHT22;13191;47.472;11.214;2022-11-20T06:27:38;3.40;99.90
25248;DHT22;13191;47.472;11.214;2022-11-20T06:30:04;3.40;99.90
25248;DHT22;13191;47.472;11.214;2022-11-20T06:32:30;3.40;99.90
25248;DHT22;13191;47.472;11.214;2022-11-20T06:34:55;3.30;99.90
25248;DHT22;13191;47.472;11.214;2022-11-20T06:37:21;3.30;99.90
25248;DHT22;13191;47.472;11.214;2022-11-20T06:39:46;3.30;99.90
25248;DHT22;13191;47.472;11.214;2022-11-20T06:42:12;3.30;99.90
25248;DHT22;13191;47.472;11.214;2022-11-20T06:44:37;3.30;99.90
25248;DHT22;13191;47.472;11.214;2022-11-20T06:47:03;3.30;99.90
25248;DHT22;13191;47.472;11.214;2022-11-20T06:49:28;3.30;99.90
25248;DHT22;13191;47.472;11.214;2022-11-20T06:51:54;3.40;99.90
25248;DHT22;13191;47.472;11.214;2022-11-20T06:54:20;3.40;99.90
25248;DHT22;13191;47.472;11.214;2022-11-20T06:56:48;3.40;99.90
25248;DHT22;13191;47.472;11.214;2022-11-20T06:59:14;3.40;99.90
25248;DHT22;13191;47.472;11.214;2022-11-20T07:01:40;3.40;99.90
25248;DHT22;13191;47.472;11.214;2022-11-20T07:04:05;3.40;99.90
25248;DHT22;13191;47.472;11.214;2022-11-20T07:06:31;3.30;99.90
25248;DHT22;13191;47.472;11.214;2022-11-20T07:08:57;3.30;99.90
25248;DHT22;13191;47.472;11.214;2022-11-20T07:11:24;3.30;99.90
25248;DHT22;13191;47.472;11.214;2022-11-20T07:13:50;3.30;99.90
25248;DHT22;13191;47.472;11.214;2022-11-20T07:16:15;3.30;99.90
25248;DHT22;13191;47.472;11.214;2022-11-20T07:18:41;3.30;99.90
25248;DHT22;13191;47.472;11.214;2022-11-20T07:21:08;3.30;99.90
25248;DHT22;13191;47.472;11.214;2022-11-20T07:23:35;3.20;99.90
25248;DHT22;13191;47.472;11.214;2022-11-20T07:26:05;3.20;99.90
25248;DHT22;13191;47.472;11.214;2022-11-20T07:28:31;3.20;99.90
25248;DHT22;13191;47.472;11.214;2022-11-20T07:30:56;3.10;99.90
25248;DHT22;13191;47.472;11.214;2022-11-20T07:33:23;3.10;99.90
25248;DHT22;13191;47.472;11.214;2022-11-20T07:35:48;3.10;99.90
25248;DHT22;13191;47.472;11.214;2022-11-20T07:38:14;3.10;99.90
25248;DHT22;13191;47.472;11.214;2022-11-20T07:40:40;3.10;99.90
25248;DHT22;13191;47.472;11.214;2022-11-20T07:43:06;3.10;99.90
25248;DHT22;13191;47.472;11.214;2022-11-20T07:45:31;3.10;99.90
25248;DHT22;13191;47.472;11.214;2022-11-20T07:47:57;3.20;99.90
25248;DHT22;13191;47.472;11.214;2022-11-20T07:50:22;3.20;99.90
25248;DHT22;13191;47.472;11.214;2022-11-20T07:52:48;3.20;99.90
25248;DHT22;13191;47.472;11.214;2022-11-20T07:55:14;3.20;99.90
25248;DHT22;13191;47.472;11.214;2022-11-20T07:57:40;3.30;99.90
25248;DHT22;13191;47.472;11.214;2022-11-20T08:00:08;3.30;99.90
25248;DHT22;13191;47.472;11.214;2022-11-20T08:02:38;3.20;99.90
25248;DHT22;13191;47.472;11.214;2022-11-20T08:05:08;3.20;99.90
25248;DHT22;13191;47.472;11.214;2022-11-20T08:07:42;3.20;99.90
25248;DHT22;13191;47.472;11.214;2022-11-20T08:10:10;3.30;99.90
25248;DHT22;13191;47.472;11.214;2022-11-20T08:12:42;3.30;99.90
25248;DHT22;13191;47.472;11.214;2022-11-20T08:15:27;3.30;99.90
25248;DHT22;13191;47.472;11.214;2022-11-20T08:18:02;3.40;99.90
25248;DHT22;13191;47.472;11.214;2022-11-20T08:20:28;3.40;99.90
25248;DHT22;13191;47.472;11.214;2022-11-20T08:22:58;3.50;99.90
25248;DHT22;13191;47.472;11.214;2022-11-20T08:25:25;3.50;99.90
25248;DHT22;13191;47.472;11.214;2022-11-20T08:27:50;3.50;99.90
25248;DHT22;13191;47.472;11.214;2022-11-20T08:30:16;3.60;99.90
25248;DHT22;13191;47.472;11.214;2022-11-20T08:32:42;3.60;99.90
25248;DHT22;13191;47.472;11.214;2022-11-20T08:35:07;3.60;99.90
25248;DHT22;13191;47.472;11.214;2022-11-20T08:37:33;3.70;99.90
25248;DHT22;13191;47.472;11.214;2022-11-20T08:39:59;3.70;99.90
25248;DHT22;13191;47.472;11.214;2022-11-20T08:42:24;3.80;99.90
25248;DHT22;13191;47.472;11.214;2022-11-20T08:44:50;3.80;99.90
25248;DHT22;13191;47.472;11.214;2022-11-20T08:47:15;3.80;99.90
25248;DHT22;13191;47.472;11.214;2022-11-20T08:49:41;3.80;99.90
25248;DHT22;13191;47.472;11.214;2022-11-20T08:52:06;3.90;99.90
25248;DHT22;13191;47.472;11.214;2022-11-20T08:54:32;3.90;99.90
25248;DHT22;13191;47.472;11.214;2022-11-20T08:56:57;3.90;99.90
25248;DHT22;13191;47.472;11.214;2022-11-20T08:59:23;3.90;99.90
25248;DHT22;13191;47.472;11.214;2022-11-20T09:01:49;3.90;99.90
25248;DHT22;13191;47.472;11.214;2022-11-20T09:04:15;3.90;99.90
25248;DHT22;13191;47.472;11.214;2022-11-20T09:06:40;3.90;99.90
25248;DHT22;13191;47.472;11.214;2022-11-20T09:09:06;4.00;99.90
25248;DHT22;13191;47.472;11.214;2022-11-20T09:11:32;4.00;99.90
25248;DHT22;13191;47.472;11.214;2022-11-20T09:13:58;4.00;99.90
25248;DHT22;13191;47.472;11.214;2022-11-20T09:16:23;4.00;99.90
25248;DHT22;13191;47.472;11.214;2022-11-20T09:18:50;4.00;99.90
25248;DHT22;13191;47.472;11.214;2022-11-20T09:21:16;4.00;99.90
25248;DHT22;13191;47.472;11.214;2022-11-20T09:23:42;4.00;99.90
25248;DHT22;13191;47.472;11.214;2022-11-20T09:26:11;4.00;99.90
25248;DHT22;13191;47.472;11.214;2022-11-20T09:28:38;4.10;99.90
25248;DHT22;13191;47.472;11.214;2022-11-20T09:31:08;4.00;99.90
25248;DHT22;13191;47.472;11.214;2022-11-20T09:33:34;4.10;99.90
25248;DHT22;13191;47.472;11.214;2022-11-20T09:36:00;4.20;99.90
25248;DHT22;13191;47.472;11.214;2022-11-20T09:38:26;4.20;99.90
25248;DHT22;13191;47.472;11.214;2022-11-20T09:41:04;4.20;99.90
25248;DHT22;13191;47.472;11.214;2022-11-20T09:44:00;4.30;99.90
25248;DHT22;13191;47.472;11.214;2022-11-20T09:46:38;4.30;99.90
25248;DHT22;13191;47.472;11.214;2022-11-20T09:54:45;4.40;99.90
25248;DHT22;13191;47.472;11.214;2022-11-20T09:57:18;4.40;99.90
25248;DHT22;13191;47.472;11.214;2022-11-20T09:59:49;4.50;99.90
25248;DHT22;13191;47.472;11.214;2022-11-20T10:05:10;4.60;99.90
25248;DHT22;13191;47.472;11.214;2022-11-20T10:13:45;4.80;99.90
25248;DHT22;13191;47.472;11.214;2022-11-20T10:24:56;5.10;99.90
25248;DHT22;13191;47.472;11.214;2022-11-20T10:28:10;5.10;99.90
25248;DHT22;13191;47.472;11.214;2022-11-20T10:30:37;5.20;99.90
25248;DHT22;13191;47.472;11.214;2022-11-20T10:33:11;5.20;99.90
25248;DHT22;13191;47.472;11.214;2022-11-20T10:38:37;5.40;99.90
25248;DHT22;13191;47.472;11.214;2022-11-20T10:41:05;5.40;99.90
25248;DHT22;13191;47.472;11.214;2022-11-20T10:44:00;5.40;99.90
25248;DHT22;13191;47.472;11.214;2022-11-20T10:46:39;5.40;99.90
25248;DHT22;13191;47.472;11.214;2022-11-20T10:49:17;5.50;99.90
25248;DHT22;13191;47.472;11.214;2022-11-20T10:52:03;5.60;99.90
25248;DHT22;13191;47.472;11.214;2022-11-20T10:54:42;5.70;99.90
25248;DHT22;13191;47.472;11.214;2022-11-20T11:00:09;5.70;99.90
25248;DHT22;13191;47.472;11.214;2022-11-20T11:02:52;5.70;99.90
25248;DHT22;13191;47.472;11.214;2022-11-20T11:05:40;5.70;99.90
25248;DHT22;13191;47.472;11.214;2022-11-20T11:08:14;5.60;99.90
25248;DHT22;13191;47.472;11.214;2022-11-20T11:10:59;5.70;99.90
25248;DHT22;13191;47.472;11.214;2022-11-20T11:13:30;5.70;99.90
25248;DHT22;13191;47.472;11.214;2022-11-20T11:15:56;5.70;99.90
25248;DHT22;13191;47.472;11.214;2022-11-20T11:18:33;5.70;99.90
25248;DHT22;13191;47.472;11.214;2022-11-20T11:21:02;5.60;99.90
25248;DHT22;13191;47.472;11.214;2022-11-20T11:23:41;5.60;99.90
25248;DHT22;13191;47.472;11.214;2022-11-20T11:26:27;5.70;99.90
25248;DHT22;13191;47.472;11.214;2022-11-20T11:28:57;5.80;99.90
25248;DHT22;13191;47.472;11.214;2022-11-20T11:31:25;5.80;99.90
25248;DHT22;13191;47.472;11.214;2022-11-20T11:33:51;5.90;99.90
25248;DHT22;13191;47.472;11.214;2022-11-20T11:36:20;5.90;99.90
25248;DHT22;13191;47.472;11.214;2022-11-20T11:38:50;5.80;99.90
25248;DHT22;13191;47.472;11.214;2022-11-20T11:41:23;5.90;99.90
25248;DHT22;13191;47.472;11.214;2022-11-20T11:44:04;6.00;99.90
25248;DHT22;13191;47.472;11.214;2022-11-20T11:46:58;6.10;99.90
25248;DHT22;13191;47.472;11.214;2022-11-20T11:49:24;6.30;99.90
25248;DHT22;13191;47.472;11.214;2022-11-20T11:57:43;6.50;99.90
25248;DHT22;13191;47.472;11.214;2022-11-20T12:00:18;6.60;99.90
25248;DHT22;13191;47.472;11.214;2022-11-20T12:05:30;6.70;99.90
25248;DHT22;13191;47.472;11.214;2022-11-20T12:08:21;6.70;99.90
25248;DHT22;13191;47.472;11.214;2022-11-20T12:14:22;6.70;99.90
25248;DHT22;13191;47.472;11.214;2022-11-20T12:16:52;6.70;99.90
25248;DHT22;13191;47.472;11.214;2022-11-20T12:19:18;6.70;99.90
25248;DHT22;13191;47.472;11.214;2022-11-20T12:21:53;6.70;99.90
25248;DHT22;13191;47.472;11.214;2022-11-20T12:24:25;6.80;99.90
25248;DHT22;13191;47.472;11.214;2022-11-20T12:27:22;6.90;99.90
25248;DHT22;13191;47.472;11.214;2022-11-20T12:30:20;6.90;99.90
25248;DHT22;13191;47.472;11.214;2022-11-20T12:32:58;7.10;99.90
25248;DHT22;13191;47.472;11.214;2022-11-20T12:38:17;7.20;99.90
25248;DHT22;13191;47.472;11.214;2022-11-20T12:40:59;7.30;99.90
25248;DHT22;13191;47.472;11.214;2022-11-20T12:49:42;7.60;99.90
25248;DHT22;13191;47.472;11.214;2022-11-20T12:55:21;7.70;99.90
25248;DHT22;13191;47.472;11.214;2022-11-20T12:58:01;7.80;99.90
25248;DHT22;13191;47.472;11.214;2022-11-20T13:00:30;7.80;99.90
25248;DHT22;13191;47.472;11.214;2022-11-20T13:03:24;7.80;99.90
25248;DHT22;13191;47.472;11.214;2022-11-20T13:06:16;7.80;99.90
25248;DHT22;13191;47.472;11.214;2022-11-20T13:08:52;7.90;99.90
25248;DHT22;13191;47.472;11.214;2022-11-20T13:19:15;8.00;99.90
25248;DHT22;13191;47.472;11.214;2022-11-20T13:21:43;7.90;99.90
25248;DHT22;13191;47.472;11.214;2022-11-20T13:29:29;8.20;99.90
25248;DHT22;13191;47.472;11.214;2022-11-20T13:32:17;8.30;99.90
25248;DHT22;13191;47.472;11.214;2022-11-20T13:35:00;8.20;99.90
25248;DHT22;13191;47.472;11.214;2022-11-20T13:37:31;8.40;99.90
25248;DHT22;13191;47.472;11.214;2022-11-20T13:40:20;8.60;99.90
25248;DHT22;13191;47.472;11.214;2022-11-20T13:42:55;8.70;99.90
25248;DHT22;13191;47.472;11.214;2022-11-20T13:45:24;8.90;99.90
25248;DHT22;13191;47.472;11.214;2022-11-20T13:47:51;9.00;99.90
25248;DHT22;13191;47.472;11.214;2022-11-20T13:50:17;9.00;99.90
25248;DHT22;13191;47.472;11.214;2022-11-20T13:55:40;9.00;99.90
25248;DHT22;13191;47.472;11.214;2022-11-20T14:01:00;8.80;99.90
25248;DHT22;13191;47.472;11.214;2022-11-20T14:03:30;8.90;99.90
25248;DHT22;13191;47.472;11.214;2022-11-20T14:06:03;9.00;99.90
25248;DHT22;13191;47.472;11.214;2022-11-20T14:08:37;9.10;99.90
25248;DHT22;13191;47.472;11.214;2022-11-20T14:11:27;9.10;99.90
25248;DHT22;13191;47.472;11.214;2022-11-20T14:16:25;9.70;99.90
25248;DHT22;13191;47.472;11.214;2022-11-20T14:18:51;10.10;99.90
25248;DHT22;13191;47.472;11.214;2022-11-20T14:21:34;10.50;99.90
25248;DHT22;13191;47.472;11.214;2022-11-20T14:24:05;10.70;99.90
25248;DHT22;13191;47.472;11.214;2022-11-20T14:26:30;11.10;99.90
25248;DHT22;13191;47.472;11.214;2022-11-20T14:28:56;11.20;99.90
25248;DHT22;13191;47.472;11.214;2022-11-20T14:31:24;11.30;99.90
25248;DHT22;13191;47.472;11.214;2022-11-20T14:33:54;11.30;99.90
25248;DHT22;13191;47.472;11.214;2022-11-20T14:36:23;11.30;99.90
25248;DHT22;13191;47.472;11.214;2022-11-20T14:38:49;11.20;99.90
25248;DHT22;13191;47.472;11.214;2022-11-20T14:41:18;10.80;99.90
25248;DHT22;13191;47.472;11.214;2022-11-20T14:43:56;10.70;99.90
25248;DHT22;13191;47.472;11.214;2022-11-20T14:46:23;10.70;99.90
25248;DHT22;13191;47.472;11.214;2022-11-20T14:48:51;10.50;99.90
25248;DHT22;13191;47.472;11.214;2022-11-20T14:51:37;10.40;99.90
25248;DHT22;13191;47.472;11.214;2022-11-20T14:54:14;10.10;99.90
25248;DHT22;13191;47.472;11.214;2022-11-20T14:56:40;9.90;99.90
25248;DHT22;13191;47.472;11.214;2022-11-20T14:59:08;9.70;99.90
25248;DHT22;13191;47.472;11.214;2022-11-20T15:01:34;9.10;99.90
25248;DHT22;13191;47.472;11.214;2022-11-20T15:04:09;9.00;99.90
25248;DHT22;13191;47.472;11.214;2022-11-20T15:06:36;8.80;99.90
25248;DHT22;13191;47.472;11.214;2022-11-20T15:09:03;8.70;99.90
25248;DHT22;13191;47.472;11.214;2022-11-20T15:11:31;8.50;99.90
25248;DHT22;13191;47.472;11.214;2022-11-20T15:14:03;8.40;99.90
25248;DHT22;13191;47.472;11.214;2022-11-20T15:16:29;8.20;99.90
25248;DHT22;13191;47.472;11.214;2022-11-20T15:18:55;8.00;99.90
25248;DHT22;13191;47.472;11.214;2022-11-20T15:21:21;7.60;99.90
25248;DHT22;13191;47.472;11.214;2022-11-20T15:23:47;7.50;99.90
25248;DHT22;13191;47.472;11.214;2022-11-20T15:26:18;7.40;99.90
25248;DHT22;13191;47.472;11.214;2022-11-20T15:28:46;7.20;99.90
25248;DHT22;13191;47.472;11.214;2022-11-20T15:31:18;7.10;99.90
25248;DHT22;13191;47.472;11.214;2022-11-20T15:33:44;7.00;99.90
25248;DHT22;13191;47.472;11.214;2022-11-20T15:36:10;6.80;99.90
25248;DHT22;13191;47.472;11.214;2022-11-20T15:38:39;6.60;99.90
25248;DHT22;13191;47.472;11.214;2022-11-20T15:41:04;6.40;99.90
25248;DHT22;13191;47.472;11.214;2022-11-20T15:43:30;6.20;99.90
25248;DHT22;13191;47.472;11.214;2022-11-20T15:46:09;6.10;99.90
25248;DHT22;13191;47.472;11.214;2022-11-20T15:48:39;5.90;99.90
25248;DHT22;13191;47.472;11.214;2022-11-20T15:53:41;5.20;99.90
25248;DHT22;13191;47.472;11.214;2022-11-20T15:56:14;5.00;99.90
25248;DHT22;13191;47.472;11.214;2022-11-20T15:58:40;5.00;99.90
25248;DHT22;13191;47.472;11.214;2022-11-20T16:01:13;4.80;99.90
25248;DHT22;13191;47.472;11.214;2022-11-20T16:03:40;4.80;99.90
25248;DHT22;13191;47.472;11.214;2022-11-20T16:06:06;4.60;99.90
25248;DHT22;13191;47.472;11.214;2022-11-20T16:08:32;4.50;99.90
25248;DHT22;13191;47.472;11.214;2022-11-20T16:10:58;4.40;99.90
25248;DHT22;13191;47.472;11.214;2022-11-20T16:13:23;4.40;99.90
25248;DHT22;13191;47.472;11.214;2022-11-20T16:16:11;4.40;99.90
25248;DHT22;13191;47.472;11.214;2022-11-20T16:18:42;4.20;99.90
25248;DHT22;13191;47.472;11.214;2022-11-20T16:21:11;3.80;99.90
25248;DHT22;13191;47.472;11.214;2022-11-20T16:23:37;3.60;99.90
25248;DHT22;13191;47.472;11.214;2022-11-20T16:26:09;3.40;99.90
25248;DHT22;13191;47.472;11.214;2022-11-20T16:28:35;3.30;99.90
25248;DHT22;13191;47.472;11.214;2022-11-20T16:31:11;3.00;99.90
25248;DHT22;13191;47.472;11.214;2022-11-20T16:33:37;2.60;99.90
25248;DHT22;13191;47.472;11.214;2022-11-20T16:36:14;2.30;99.90
25248;DHT22;13191;47.472;11.214;2022-11-20T16:38:41;2.20;99.90
25248;DHT22;13191;47.472;11.214;2022-11-20T16:41:07;2.20;99.90
25248;DHT22;13191;47.472;11.214;2022-11-20T16:43:59;2.20;99.90
25248;DHT22;13191;47.472;11.214;2022-11-20T16:46:28;2.00;99.90
25248;DHT22;13191;47.472;11.214;2022-11-20T16:49:01;2.00;99.90
25248;DHT22;13191;47.472;11.214;2022-11-20T16:51:29;2.10;99.90
25248;DHT22;13191;47.472;11.214;2022-11-20T16:53:55;2.10;99.90
25248;DHT22;13191;47.472;11.214;2022-11-20T16:56:23;1.90;99.90
25248;DHT22;13191;47.472;11.214;2022-11-20T16:58:50;1.90;99.90
25248;DHT22;13191;47.472;11.214;2022-11-20T17:01:18;1.90;99.90
25248;DHT22;13191;47.472;11.214;2022-11-20T17:03:46;1.90;99.90
25248;DHT22;13191;47.472;11.214;2022-11-20T17:06:16;1.90;99.90